Time;durP1;ratioP1;P1;durP2;ratioP2;P2;SDS_P1;SDS_P2;PMS_P1;PMS_P2;Temp;Humidity;BMP_temperature;BMP_pressure;BME280_temperature;BME280_humidity;BME280_pressure;Samples;Min_cycle;Max_cycle;Signal;HPM_P1;HPM_P2
2022/07/06 00:01:44;;;;;;;9.05;2.20;;;;;;;;;;5032560;28;20259;-69
2022/07/06 00:04:10;;;;;;;4.28;2.20;;;;;;;;;;5032565;28;20029;-69
2022/07/06 00:06:35;;;;;;;6.32;2.63;;;;;;;;;;5032417;28;20037;-69
2022/07/06 00:09:01;;;;;;;3.50;1.90;;;;;;;;;;5033014;28;20463;-69
2022/07/06 00:11:26;;;;;;;5.70;2.33;;;;;;;;;;5014805;28;20029;-69
2022/07/06 00:13:52;;;;;;;5.47;2.30;;;;;;;;;;5032723;28;20427;-69
2022/07/06 00:16:18;;;;;;;4.95;1.90;;;;;;;;;;5035004;28;20032;-69
2022/07/06 00:18:43;;;;;;;3.10;2.08;;;;;;;;;;5036134;28;20029;-69
2022/07/06 00:21:09;;;;;;;4.10;2.10;;;;;;;;;;5035969;28;20120;-70
2022/07/06 00:23:34;;;;;;;4.75;2.17;;;;;;;;;;5036164;28;20064;-70
2022/07/06 00:25:59;;;;;;;2.60;2.20;;;;;;;;;;5035814;28;20025;-70
2022/07/06 00:28:25;;;;;;;3.35;1.90;;;;;;;;;;5035896;28;20018;-70
2022/07/06 00:30:50;;;;;;;2.55;1.80;;;;;;;;;;5035734;28;20466;-70
2022/07/06 00:33:15;;;;;;;1.85;1.60;;;;;;;;;;5035761;28;20017;-70
2022/07/06 00:35:40;;;;;;;4.38;1.80;;;;;;;;;;5035622;28;20483;-70
2022/07/06 00:38:06;;;;;;;3.40;2.00;;;;;;;;;;5036152;28;20072;-69
2022/07/06 00:40:31;;;;;;;3.25;1.67;;;;;;;;;;5018115;28;20017;-70
2022/07/06 00:42:57;;;;;;;2.53;1.65;;;;;;;;;;5035621;28;20029;-70
2022/07/06 00:45:22;;;;;;;3.45;1.73;;;;;;;;;;5035482;28;20026;-70
2022/07/06 00:47:48;;;;;;;3.67;1.63;;;;;;;;;;5035574;28;20123;-70
2022/07/06 00:50:17;;;;;;;2.58;1.70;;;;;;;;;;5035551;28;20033;-69
2022/07/06 00:52:56;;;;;;;4.88;1.80;;;;;;;;;;5035351;28;20033;-68
2022/07/06 00:55:24;;;;;;;2.35;1.77;;;;;;;;;;5035586;28;20033;-69
2022/07/06 00:57:50;;;;;;;2.58;2.05;;;;;;;;;;5035202;28;20430;-69
2022/07/06 01:00:19;;;;;;;3.22;1.63;;;;;;;;;;5035201;28;20474;-70
2022/07/06 01:02:45;;;;;;;2.38;1.55;;;;;;;;;;5035161;28;20025;-69
2022/07/06 01:05:11;;;;;;;2.08;1.58;;;;;;;;;;5035133;28;20040;-69
2022/07/06 01:07:39;;;;;;;3.28;1.90;;;;;;;;;;5034935;28;20075;-69
2022/07/06 01:10:05;;;;;;;2.95;1.90;;;;;;;;;;5035046;28;20028;-70
2022/07/06 01:12:31;;;;;;;2.42;1.70;;;;;;;;;;5034927;28;20499;-69
2022/07/06 01:14:56;;;;;;;5.55;1.58;;;;;;;;;;5035193;28;20029;-69
2022/07/06 01:17:23;;;;;;;3.17;1.90;;;;;;;;;;5034830;28;20021;-69
2022/07/06 01:19:48;;;;;;;3.10;1.90;;;;;;;;;;5037046;28;20055;-77
2022/07/06 01:22:13;;;;;;;3.15;1.65;;;;;;;;;;5038964;28;20542;-78
2022/07/06 01:24:38;;;;;;;2.33;1.67;;;;;;;;;;5038470;28;20032;-79
2022/07/06 01:27:05;;;;;;;2.55;1.83;;;;;;;;;;5037920;28;20366;-78
2022/07/06 01:29:32;;;;;;;1.83;1.52;;;;;;;;;;5020534;28;20021;-77
2022/07/06 01:31:57;;;;;;;2.55;1.50;;;;;;;;;;5021073;28;20059;-78
2022/07/06 01:34:22;;;;;;;2.75;1.55;;;;;;;;;;5020919;28;20482;-78
2022/07/06 01:36:48;;;;;;;2.13;1.58;;;;;;;;;;5037804;28;20022;-78
2022/07/06 01:39:13;;;;;;;2.00;1.63;;;;;;;;;;5038725;28;20032;-77
2022/07/06 01:41:39;;;;;;;2.42;1.65;;;;;;;;;;5038578;28;20052;-79
2022/07/06 01:44:04;;;;;;;2.20;1.60;;;;;;;;;;5038800;28;20026;-77
2022/07/06 01:46:30;;;;;;;2.50;1.75;;;;;;;;;;5039548;28;20170;-78
2022/07/06 01:48:56;;;;;;;4.63;2.15;;;;;;;;;;5020590;28;20422;-79
2022/07/06 01:51:21;;;;;;;4.88;2.13;;;;;;;;;;5038632;28;20386;-77
2022/07/06 01:53:48;;;;;;;2.70;1.90;;;;;;;;;;5038885;28;20029;-78
2022/07/06 01:56:13;;;;;;;3.60;1.65;;;;;;;;;;5038348;28;20421;-78
2022/07/06 01:58:39;;;;;;;2.35;1.75;;;;;;;;;;5038277;28;20018;-79
2022/07/06 02:01:15;;;;;;;3.78;1.90;;;;;;;;;;5039238;28;20025;-79
2022/07/06 02:03:41;;;;;;;3.53;2.05;;;;;;;;;;5020716;28;20093;-78
2022/07/06 02:06:06;;;;;;;3.03;2.08;;;;;;;;;;5038240;28;20063;-81
2022/07/06 02:08:33;;;;;;;5.45;1.83;;;;;;;;;;5038791;28;20030;-78
2022/07/06 02:10:58;;;;;;;4.88;2.10;;;;;;;;;;5038720;28;20025;-78
2022/07/06 02:13:24;;;;;;;5.82;2.22;;;;;;;;;;5020639;28;20066;-78
2022/07/06 02:15:49;;;;;;;6.20;1.90;;;;;;;;;;5038484;28;20025;-78
2022/07/06 02:18:14;;;;;;;4.00;2.30;;;;;;;;;;5038073;28;20092;-78
2022/07/06 02:20:40;;;;;;;3.83;1.90;;;;;;;;;;5037782;28;20025;-78
2022/07/06 02:23:05;;;;;;;4.40;2.00;;;;;;;;;;5019822;28;20258;-77
2022/07/06 02:25:30;;;;;;;4.50;2.08;;;;;;;;;;5019959;28;20032;-78
2022/07/06 02:27:55;;;;;;;6.53;2.10;;;;;;;;;;5037532;28;20021;-78
2022/07/06 02:30:21;;;;;;;2.63;1.97;;;;;;;;;;5038167;28;20322;-78
2022/07/06 02:32:46;;;;;;;3.75;1.90;;;;;;;;;;5020363;28;20258;-78
2022/07/06 02:35:11;;;;;;;3.47;2.08;;;;;;;;;;5037611;28;20089;-77
2022/07/06 02:37:37;;;;;;;4.38;2.13;;;;;;;;;;5020283;28;20017;-79
2022/07/06 02:40:03;;;;;;;4.93;2.40;;;;;;;;;;5037514;28;20079;-77
2022/07/06 02:42:28;;;;;;;3.25;2.13;;;;;;;;;;5020684;28;20051;-79
2022/07/06 02:44:54;;;;;;;4.43;1.90;;;;;;;;;;5038766;28;20418;-77
2022/07/06 02:47:19;;;;;;;3.75;1.80;;;;;;;;;;5021247;28;20628;-78
2022/07/06 02:49:44;;;;;;;6.55;2.28;;;;;;;;;;5038907;28;20486;-79
2022/07/06 02:52:09;;;;;;;4.77;2.17;;;;;;;;;;5039016;28;20029;-77
2022/07/06 02:54:35;;;;;;;10.95;2.10;;;;;;;;;;5038590;28;20300;-79
2022/07/06 02:57:00;;;;;;;3.55;1.92;;;;;;;;;;5037777;28;20064;-79
2022/07/06 02:59:25;;;;;;;2.60;1.90;;;;;;;;;;5037980;28;20101;-78
2022/07/06 03:01:50;;;;;;;3.30;1.90;;;;;;;;;;5037025;28;20259;-79
2022/07/06 03:04:16;;;;;;;3.65;2.13;;;;;;;;;;5019437;28;20263;-77
2022/07/06 03:06:41;;;;;;;3.30;2.22;;;;;;;;;;5019934;28;20033;-78
2022/07/06 03:09:06;;;;;;;4.45;2.00;;;;;;;;;;5036862;28;20041;-78
2022/07/06 03:11:35;;;;;;;2.40;2.00;;;;;;;;;;5039513;28;20044;-78
2022/07/06 03:14:02;;;;;;;2.08;1.88;;;;;;;;;;5048603;28;20032;-77
2022/07/06 03:16:28;;;;;;;2.30;1.77;;;;;;;;;;5035659;28;20010;-77
2022/07/06 03:18:53;;;;;;;4.10;2.20;;;;;;;;;;5027349;28;20030;-78
2022/07/06 03:21:18;;;;;;;3.63;2.07;;;;;;;;;;5035333;28;20393;-79
2022/07/06 03:23:43;;;;;;;3.40;2.20;;;;;;;;;;5035718;28;20421;-78
2022/07/06 03:26:09;;;;;;;5.67;2.20;;;;;;;;;;5016928;28;20672;-79
2022/07/06 03:28:34;;;;;;;4.13;2.22;;;;;;;;;;5018323;28;20711;-79
2022/07/06 03:30:59;;;;;;;3.47;2.10;;;;;;;;;;5035398;28;20021;-77
2022/07/06 03:33:24;;;;;;;3.47;2.20;;;;;;;;;;5036236;28;20334;-77
2022/07/06 03:35:49;;;;;;;2.40;1.97;;;;;;;;;;5035816;28;20258;-77
2022/07/06 03:38:15;;;;;;;2.70;1.90;;;;;;;;;;5035510;28;20294;-78
2022/07/06 03:40:40;;;;;;;5.80;2.20;;;;;;;;;;5036786;28;20273;-79
2022/07/06 03:43:05;;;;;;;4.67;1.90;;;;;;;;;;5035359;28;20263;-79
2022/07/06 03:45:30;;;;;;;3.27;2.13;;;;;;;;;;5035882;28;20813;-79
2022/07/06 03:47:56;;;;;;;6.43;2.08;;;;;;;;;;5036165;28;20274;-79
2022/07/06 03:50:21;;;;;;;4.90;2.10;;;;;;;;;;5038153;28;20021;-79
2022/07/06 03:52:46;;;;;;;3.00;2.17;;;;;;;;;;5038947;28;20471;-80
2022/07/06 03:55:12;;;;;;;3.00;2.47;;;;;;;;;;5038520;28;20029;-78
2022/07/06 03:57:40;;;;;;;5.55;2.10;;;;;;;;;;5038988;28;20258;-79
2022/07/06 04:00:06;;;;;;;3.17;1.95;;;;;;;;;;5022381;28;20452;-78
2022/07/06 04:02:32;;;;;;;3.72;2.50;;;;;;;;;;5038405;28;20022;-77
2022/07/06 04:04:57;;;;;;;5.43;2.20;;;;;;;;;;5021709;28;20048;-78
2022/07/06 04:07:22;;;;;;;4.13;2.33;;;;;;;;;;5039961;28;20048;-77
2022/07/06 04:09:47;;;;;;;4.50;2.20;;;;;;;;;;5038316;28;20021;-77
2022/07/06 04:12:13;;;;;;;2.33;2.07;;;;;;;;;;5021138;28;20326;-78
2022/07/06 04:14:38;;;;;;;3.63;2.30;;;;;;;;;;5039026;28;20337;-78
2022/07/06 04:17:51;;;;;;;5.05;2.15;;;;;;;;;;5023196;28;20470;-79
2022/07/06 04:19:49;;;;;;;3.75;2.00;;;;;;;;;;5038853;28;20089;-78
2022/07/06 04:22:15;;;;;;;4.85;2.00;;;;;;;;;;5020474;28;20060;-78
2022/07/06 04:24:40;;;;;;;3.50;2.00;;;;;;;;;;5038019;28;20485;-77
2022/07/06 04:27:05;;;;;;;2.30;2.10;;;;;;;;;;5019808;28;20108;-77
2022/07/06 04:29:31;;;;;;;2.83;2.10;;;;;;;;;;5038856;28;20286;-77
2022/07/06 04:31:56;;;;;;;8.70;2.50;;;;;;;;;;5037567;28;20744;-78
2022/07/06 04:34:21;;;;;;;2.77;2.23;;;;;;;;;;5037992;28;20628;-77
2022/07/06 04:36:46;;;;;;;5.13;2.17;;;;;;;;;;5037964;28;20682;-77
2022/07/06 04:39:12;;;;;;;5.10;2.33;;;;;;;;;;5038194;28;20029;-78
2022/07/06 04:41:37;;;;;;;7.38;2.45;;;;;;;;;;5037103;28;20262;-78
2022/07/06 04:44:03;;;;;;;4.93;2.38;;;;;;;;;;5020084;28;20491;-78
2022/07/06 04:46:28;;;;;;;6.85;2.35;;;;;;;;;;5036691;28;20021;-77
2022/07/06 04:48:53;;;;;;;2.50;2.07;;;;;;;;;;5038846;28;20029;-78
2022/07/06 04:51:18;;;;;;;3.57;2.33;;;;;;;;;;5037677;28;20269;-77
2022/07/06 04:53:45;;;;;;;7.13;2.80;;;;;;;;;;5038737;28;20263;-77
2022/07/06 04:56:10;;;;;;;6.07;2.60;;;;;;;;;;5038342;28;20742;-78
2022/07/06 04:58:35;;;;;;;5.23;2.40;;;;;;;;;;5036105;28;20018;-79
2022/07/06 05:01:01;;;;;;;4.97;2.23;;;;;;;;;;5040393;28;20301;-78
2022/07/06 05:03:26;;;;;;;4.63;2.10;;;;;;;;;;5047629;28;20266;-78
2022/07/06 05:05:51;;;;;;;4.93;2.50;;;;;;;;;;5030351;28;20033;-78
2022/07/06 05:08:16;;;;;;;5.53;2.60;;;;;;;;;;5029527;28;20277;-78
2022/07/06 05:10:44;;;;;;;3.73;2.10;;;;;;;;;;5038120;28;20021;-77
2022/07/06 05:13:10;;;;;;;3.33;2.10;;;;;;;;;;5037334;28;20263;-77
2022/07/06 05:15:35;;;;;;;4.13;1.97;;;;;;;;;;5038358;28;20033;-78
2022/07/06 05:18:00;;;;;;;2.50;2.10;;;;;;;;;;5038064;28;20273;-77
2022/07/06 05:20:25;;;;;;;4.30;2.45;;;;;;;;;;5036992;28;20087;-77
2022/07/06 05:22:51;;;;;;;5.60;2.10;;;;;;;;;;5018016;28;20091;-77
2022/07/06 05:25:16;;;;;;;3.50;2.40;;;;;;;;;;5035768;28;20057;-76
2022/07/06 05:27:41;;;;;;;3.30;2.07;;;;;;;;;;5035926;28;20029;-78
2022/07/06 05:30:07;;;;;;;3.60;2.03;;;;;;;;;;5018463;28;20262;-78
2022/07/06 05:32:32;;;;;;;5.32;2.00;;;;;;;;;;5038041;28;20486;-77
2022/07/06 05:34:58;;;;;;;5.43;2.20;;;;;;;;;;5038138;28;20366;-77
2022/07/06 05:37:23;;;;;;;4.80;2.03;;;;;;;;;;5036585;28;20018;-77
2022/07/06 05:39:50;;;;;;;4.83;2.30;;;;;;;;;;5019901;28;20263;-78
2022/07/06 05:42:15;;;;;;;2.97;2.00;;;;;;;;;;5037411;28;20333;-77
2022/07/06 05:44:40;;;;;;;4.97;2.42;;;;;;;;;;5038248;28;20457;-77
2022/07/06 05:52:33;;;;;;;4.80;2.17;;;;;;;;;;5038041;28;20117;-76
2022/07/06 05:54:59;;;;;;;3.72;2.13;;;;;;;;;;5036041;28;20056;-77
2022/07/06 05:57:24;;;;;;;4.70;2.30;;;;;;;;;;5035990;28;20072;-76
2022/07/06 05:59:49;;;;;;;4.80;2.08;;;;;;;;;;5035907;28;20052;-76
2022/07/06 06:02:15;;;;;;;2.85;1.90;;;;;;;;;;5019499;28;20097;-79
2022/07/06 06:04:40;;;;;;;3.85;1.95;;;;;;;;;;5036953;28;20029;-78
2022/07/06 06:10:21;;;;;;;3.30;1.90;;;;;;;;;;4128965;26;20346;-77
2022/07/06 06:13:04;;;;;;;4.25;2.00;;;;;;;;;;4975683;28;20030;-77
2022/07/06 06:15:34;;;;;;;3.75;1.80;;;;;;;;;;4975821;28;20034;-77
2022/07/06 06:18:21;;;;;;;;;;;;;;;;;;;;;
2022/07/06 06:21:35;;;;;;;;;;;;;;;;;;;;;
2022/07/06 06:24:01;;;;;;;7.72;1.90;;;;;;;;;;4977893;28;20112;-79
2022/07/06 06:26:58;;;;;;;2.38;1.55;;;;;;;;;;4977382;28;20103;-79
2022/07/06 06:29:45;;;;;;;6.47;1.67;;;;;;;;;;4977496;28;20049;-81
2022/07/06 06:32:18;;;;;;;3.72;1.73;;;;;;;;;;4978421;28;20509;-77
2022/07/06 06:34:58;;;;;;;3.47;1.57;;;;;;;;;;4976310;28;20026;-78
2022/07/06 06:37:26;;;;;;;3.15;1.27;;;;;;;;;;4977607;28;20105;-77
2022/07/06 06:40:00;;;;;;;3.63;1.60;;;;;;;;;;4977727;28;20019;-78
2022/07/06 06:43:12;;;;;;;4.63;1.55;;;;;;;;;;4977916;28;20078;-80
2022/07/06 06:49:49;;;;;;;2.92;1.35;;;;;;;;;;4977299;28;20041;-79
2022/07/06 06:52:37;;;;;;;2.70;1.40;;;;;;;;;;4977691;28;20511;-79
2022/07/06 06:55:17;;;;;;;3.13;1.50;;;;;;;;;;4977890;28;20023;-77
2022/07/06 06:57:43;;;;;;;2.63;1.38;;;;;;;;;;4978426;28;20081;-78
2022/07/06 07:00:47;;;;;;;3.15;1.50;;;;;;;;;;4977885;28;20022;-79
2022/07/06 07:03:32;;;;;;;4.20;1.70;;;;;;;;;;4980275;28;20042;-78
2022/07/06 07:06:12;;;;;;;6.13;2.00;;;;;;;;;;4977333;28;20038;-77
2022/07/06 07:08:50;;;;;;;4.75;1.25;;;;;;;;;;4976328;28;20031;-78
2022/07/06 07:15:20;;;;;;;3.85;1.55;;;;;;;;;;4977577;28;20031;-79
2022/07/06 07:20:31;;;;;;;;;;;;;;;;;;;;;
2022/07/06 07:23:33;;;;;;;;;;;;;;;;;;;;;
2022/07/06 07:26:33;;;;;;;2.08;1.25;;;;;;;;;;5030898;28;20041;-79
2022/07/06 07:29:20;;;;;;;3.65;1.48;;;;;;;;;;5040328;28;20433;-79
2022/07/06 07:31:46;;;;;;;6.63;1.77;;;;;;;;;;5022338;28;20406;-79
2022/07/06 07:34:57;;;;;;;4.45;1.60;;;;;;;;;;5041371;28;20026;-79
2022/07/06 07:37:22;;;;;;;2.08;1.10;;;;;;;;;;5040366;28;20032;-78
2022/07/06 07:39:48;;;;;;;3.35;1.30;;;;;;;;;;5041021;28;20029;-79
2022/07/06 07:42:47;;;;;;;5.80;1.40;;;;;;;;;;5039718;28;20021;-78
2022/07/06 07:46:19;;;;;;;;;;;;;;;;;;;;;
2022/07/06 07:48:45;;;;;;;4.55;1.13;;;;;;;;;;4945810;29;20045;-78
2022/07/06 07:54:52;;;;;;;2.40;1.13;;;;;;;;;;4938602;29;20273;-79
2022/07/06 07:57:27;;;;;;;5.40;1.30;;;;;;;;;;4960035;29;20039;-77
2022/07/06 08:00:25;;;;;;;2.70;1.00;;;;;;;;;;4960612;29;20047;-78
2022/07/06 08:02:50;;;;;;;2.35;0.95;;;;;;;;;;4959311;29;20035;-79
2022/07/06 08:05:41;;;;;;;2.35;1.00;;;;;;;;;;4957920;29;20082;-77
2022/07/06 08:08:26;;;;;;;5.88;1.10;;;;;;;;;;4986452;28;20041;-78
2022/07/06 08:11:16;;;;;;;4.47;1.10;;;;;;;;;;5020793;28;20363;-77
2022/07/06 08:13:48;;;;;;;3.17;1.20;;;;;;;;;;5021117;28;20105;-79
2022/07/06 08:16:34;;;;;;;3.53;1.00;;;;;;;;;;5039836;28;20065;-79
2022/07/06 08:19:14;;;;;;;3.20;0.90;;;;;;;;;;5021316;28;20079;-79
2022/07/06 08:21:45;;;;;;;3.95;0.82;;;;;;;;;;5039580;28;20044;-79
2022/07/06 08:24:26;;;;;;;3.47;0.90;;;;;;;;;;5040587;28;20025;-79
2022/07/06 08:26:58;;;;;;;2.78;0.85;;;;;;;;;;5040191;28;20030;-77
2022/07/06 08:29:45;;;;;;;1.98;0.73;;;;;;;;;;5040164;28;20482;-79
2022/07/06 08:32:11;;;;;;;2.70;1.10;;;;;;;;;;5040347;28;20029;-78
2022/07/06 08:34:36;;;;;;;1.65;0.70;;;;;;;;;;5040130;28;20036;-78
2022/07/06 08:39:39;;;;;;;1.65;0.80;;;;;;;;;;4966011;26;20103;-78
2022/07/06 08:42:09;;;;;;;1.40;0.75;;;;;;;;;;5000221;28;20070;-79
2022/07/06 08:48:22;;;;;;;4.43;0.80;;;;;;;;;;4999149;28;20399;-79
2022/07/06 08:54:47;;;;;;;2.60;0.90;;;;;;;;;;4948647;29;20155;-77
2022/07/06 08:57:13;;;;;;;2.85;1.00;;;;;;;;;;4995643;28;20121;-78
2022/07/06 08:59:39;;;;;;;3.25;1.10;;;;;;;;;;4998720;28;20061;-79
2022/07/06 09:02:05;;;;;;;3.70;1.30;;;;;;;;;;4998347;28;20057;-79
2022/07/06 09:04:32;;;;;;;3.22;0.80;;;;;;;;;;4999741;28;20022;-77
2022/07/06 09:07:13;;;;;;;1.48;0.85;;;;;;;;;;4999723;28;20030;-79
2022/07/06 09:09:39;;;;;;;3.05;1.23;;;;;;;;;;4999853;28;20033;-78
2022/07/06 09:12:11;;;;;;;1.27;0.90;;;;;;;;;;4999826;28;20034;-80
2022/07/06 09:14:37;;;;;;;3.20;1.30;;;;;;;;;;5000522;28;20472;-79
2022/07/06 09:17:05;;;;;;;3.28;0.95;;;;;;;;;;4998351;28;20044;-78
2022/07/06 09:19:32;;;;;;;1.73;0.80;;;;;;;;;;4997298;28;20125;-78
2022/07/06 09:21:58;;;;;;;1.17;0.90;;;;;;;;;;4997025;28;20023;-78
2022/07/06 09:24:24;;;;;;;7.70;0.88;;;;;;;;;;4997895;28;20048;-78
2022/07/06 09:26:49;;;;;;;2.28;1.10;;;;;;;;;;4998675;28;20037;-78
2022/07/06 09:29:14;;;;;;;2.63;0.90;;;;;;;;;;4999859;28;20030;-78
2022/07/06 09:31:40;;;;;;;2.00;0.90;;;;;;;;;;4999355;28;20272;-78
2022/07/06 09:34:10;;;;;;;4.75;0.88;;;;;;;;;;4999207;28;20446;-79
2022/07/06 09:36:48;;;;;;;2.80;1.00;;;;;;;;;;4998176;28;20029;-79
2022/07/06 09:39:28;;;;;;;6.45;1.10;;;;;;;;;;4998463;28;20068;-79
2022/07/06 09:41:58;;;;;;;4.93;1.05;;;;;;;;;;4999583;28;20038;-79
2022/07/06 09:44:29;;;;;;;2.65;1.00;;;;;;;;;;4999528;28;20030;-81
2022/07/06 09:46:56;;;;;;;2.17;0.90;;;;;;;;;;4997330;28;20026;-78
2022/07/06 09:49:22;;;;;;;5.07;1.10;;;;;;;;;;4997686;28;20029;-78
2022/07/06 09:51:50;;;;;;;1.48;0.77;;;;;;;;;;4997861;28;20034;-77
2022/07/06 09:54:16;;;;;;;3.08;1.10;;;;;;;;;;4996611;28;20034;-77
2022/07/06 09:56:44;;;;;;;2.28;1.00;;;;;;;;;;4995776;28;20038;-78
2022/07/06 09:59:46;;;;;;;2.72;0.90;;;;;;;;;;5878160;22;20163;-77
2022/07/06 10:02:21;;;;;;;4.93;1.13;;;;;;;;;;5018958;28;20029;-77
2022/07/06 10:05:31;;;;;;;3.17;1.10;;;;;;;;;;5037892;28;20055;-78
2022/07/06 10:08:12;;;;;;;4.25;1.10;;;;;;;;;;4975676;28;20030;-82
2022/07/06 10:17:26;;;;;;;3.42;1.08;;;;;;;;;;4986085;28;20076;-80
2022/07/06 10:19:52;;;;;;;2.35;1.10;;;;;;;;;;5037171;28;20025;-78
2022/07/06 10:22:35;;;;;;;3.10;1.17;;;;;;;;;;5035460;28;20375;-79
2022/07/06 10:25:11;;;;;;;2.53;1.17;;;;;;;;;;5037008;28;20060;-78
2022/07/06 10:27:38;;;;;;;2.15;1.10;;;;;;;;;;5036165;28;20030;-81
2022/07/06 10:30:05;;;;;;;7.65;1.40;;;;;;;;;;5035482;28;20095;-82
2022/07/06 10:32:40;;;;;;;4.47;1.08;;;;;;;;;;5036711;28;20025;-81
2022/07/06 10:35:09;;;;;;;4.45;1.30;;;;;;;;;;5036592;28;20033;-78
2022/07/06 10:37:35;;;;;;;4.85;1.17;;;;;;;;;;5037114;28;20104;-77
2022/07/06 10:42:55;;;;;;;2.22;0.98;;;;;;;;;;5037394;28;20064;-79
2022/07/06 10:46:05;;;;;;;4.72;1.10;;;;;;;;;;5036888;28;20037;-78
2022/07/06 10:48:51;;;;;;;;;;;;;;;;;;;;;
2022/07/06 10:51:34;;;;;;;7.13;1.10;;;;;;;;;;5037508;28;20116;-79
2022/07/06 10:54:04;;;;;;;7.35;1.65;;;;;;;;;;5036729;28;20021;-78
2022/07/06 10:56:45;;;;;;;3.10;1.20;;;;;;;;;;5036476;28;20029;-78
2022/07/06 10:59:16;;;;;;;3.15;1.05;;;;;;;;;;5019361;28;20113;-80
2022/07/06 11:02:17;;;;;;;8.20;1.00;;;;;;;;;;5036495;28;20040;-78
2022/07/06 11:05:14;;;;;;;4.55;1.00;;;;;;;;;;5036561;28;20076;-78
2022/07/06 11:07:50;;;;;;;3.70;0.98;;;;;;;;;;5036867;28;20421;-79
2022/07/06 11:10:50;;;;;;;1.95;1.17;;;;;;;;;;5037844;28;20045;-79
2022/07/06 11:14:13;;;;;;;3.40;1.15;;;;;;;;;;5037317;28;20112;-79
2022/07/06 11:17:01;;;;;;;1.92;1.00;;;;;;;;;;4956643;29;20090;-79
2022/07/06 11:19:29;;;;;;;2.92;1.10;;;;;;;;;;4954227;29;20046;-79
2022/07/06 11:22:37;;;;;;;;;;;;;;;;;;;;;
2022/07/06 11:29:02;;;;;;;;;;;;;;;;;;;;;
2022/07/06 11:31:48;;;;;;;2.05;0.98;;;;;;;;;;5035681;28;20108;-79
2022/07/06 11:34:24;;;;;;;4.18;1.00;;;;;;;;;;5036823;28;20018;-78
2022/07/06 11:36:55;;;;;;;1.55;1.00;;;;;;;;;;5037135;28;20030;-78
2022/07/06 11:39:44;;;;;;;3.53;0.90;;;;;;;;;;5020403;28;20024;-78
2022/07/06 11:42:17;;;;;;;3.72;1.05;;;;;;;;;;5003352;28;20452;-78
2022/07/06 11:44:43;;;;;;;3.83;1.00;;;;;;;;;;5037130;28;20049;-78
2022/07/06 11:51:25;;;;;;;2.08;1.33;;;;;;;;;;4956581;29;20047;-78
2022/07/06 11:54:07;;;;;;;2.55;1.02;;;;;;;;;;4957058;29;20051;-79
2022/07/06 11:56:34;;;;;;;2.53;1.17;;;;;;;;;;5017968;28;20026;-80
2022/07/06 11:59:03;;;;;;;4.25;1.10;;;;;;;;;;5060500;22;20129;-77
2022/07/06 12:01:30;;;;;;;3.00;1.08;;;;;;;;;;5035586;28;20196;-79
2022/07/06 12:04:17;;;;;;;1.70;1.20;;;;;;;;;;5017733;28;20022;-78
2022/07/06 12:07:13;;;;;;;2.55;0.90;;;;;;;;;;5035854;28;20044;-78
2022/07/06 12:09:40;;;;;;;5.03;1.25;;;;;;;;;;5015915;28;20046;-78
2022/07/06 12:12:09;;;;;;;3.58;1.17;;;;;;;;;;5018257;28;20105;-79
2022/07/06 12:14:38;;;;;;;4.93;1.15;;;;;;;;;;5001780;28;20026;-77
2022/07/06 12:17:55;;;;;;;4.65;1.05;;;;;;;;;;5018946;28;20561;-82
2022/07/06 12:20:25;;;;;;;2.70;1.00;;;;;;;;;;5010125;28;20529;-77
2022/07/06 12:23:04;;;;;;;4.30;0.90;;;;;;;;;;5001647;28;20375;-79
2022/07/06 12:25:51;;;;;;;3.03;1.10;;;;;;;;;;5019317;28;20037;-79
2022/07/06 12:28:26;;;;;;;2.38;1.13;;;;;;;;;;5028795;28;20018;-78
2022/07/06 12:31:27;;;;;;;2.17;1.17;;;;;;;;;;5017244;28;20129;-77
2022/07/06 12:33:57;;;;;;;6.07;1.10;;;;;;;;;;5034177;28;20049;-78
2022/07/06 12:36:25;;;;;;;6.57;1.20;;;;;;;;;;5016856;28;20030;-79
2022/07/06 12:38:51;;;;;;;2.90;1.20;;;;;;;;;;5025987;28;20018;-78
2022/07/06 12:41:34;;;;;;;3.38;1.00;;;;;;;;;;5025580;28;20032;-78
2022/07/06 12:44:20;;;;;;;1.97;1.00;;;;;;;;;;5004734;28;20112;-79
2022/07/06 12:46:50;;;;;;;2.97;0.98;;;;;;;;;;5004685;28;20026;-78
2022/07/06 12:49:19;;;;;;;2.70;1.15;;;;;;;;;;5020818;28;20501;-78
2022/07/06 12:52:06;;;;;;;1.55;0.93;;;;;;;;;;5001839;28;20060;-78
2022/07/06 12:54:43;;;;;;;1.83;0.88;;;;;;;;;;5018056;28;20062;-76
2022/07/06 12:57:20;;;;;;;2.65;0.90;;;;;;;;;;5018104;28;20018;-78
2022/07/06 12:59:48;;;;;;;4.05;1.15;;;;;;;;;;5019744;28;20037;-79
2022/07/06 13:02:20;;;;;;;2.17;0.90;;;;;;;;;;5002043;28;20487;-77
2022/07/06 13:04:55;;;;;;;1.80;0.90;;;;;;;;;;5018899;28;20022;-77
2022/07/06 13:07:20;;;;;;;2.70;1.20;;;;;;;;;;5001498;28;20036;-77
2022/07/06 13:09:46;;;;;;;3.13;0.90;;;;;;;;;;5018748;28;20030;-79
2022/07/06 13:12:11;;;;;;;2.23;1.03;;;;;;;;;;5019337;28;20509;-78
2022/07/06 13:14:36;;;;;;;1.53;0.90;;;;;;;;;;5019114;28;20325;-79
2022/07/06 13:17:02;;;;;;;1.35;0.88;;;;;;;;;;5000934;28;20255;-77
2022/07/06 13:19:27;;;;;;;4.53;0.90;;;;;;;;;;5017821;28;20534;-77
2022/07/06 13:21:52;;;;;;;2.47;0.93;;;;;;;;;;5017496;28;20037;-79
2022/07/06 13:24:17;;;;;;;1.98;0.80;;;;;;;;;;5016906;28;20308;-78
2022/07/06 13:26:43;;;;;;;4.13;1.20;;;;;;;;;;5017704;28;20066;-78
2022/07/06 13:29:10;;;;;;;3.50;1.10;;;;;;;;;;5017252;28;20271;-78
2022/07/06 13:31:36;;;;;;;2.63;1.17;;;;;;;;;;4999667;28;20025;-78
2022/07/06 13:34:01;;;;;;;4.20;1.15;;;;;;;;;;4999618;28;20033;-78
2022/07/06 13:36:26;;;;;;;2.75;0.98;;;;;;;;;;5017388;28;20475;-78
2022/07/06 13:38:52;;;;;;;2.30;1.00;;;;;;;;;;5016926;28;20026;-77
2022/07/06 13:41:17;;;;;;;4.57;1.13;;;;;;;;;;4999752;28;20268;-80
2022/07/06 13:43:42;;;;;;;2.27;0.97;;;;;;;;;;5017362;28;20083;-78
2022/07/06 13:46:10;;;;;;;4.60;1.10;;;;;;;;;;5018547;28;20651;-79
2022/07/06 13:48:35;;;;;;;5.88;1.15;;;;;;;;;;5000917;28;20327;-79
2022/07/06 13:51:01;;;;;;;3.13;1.30;;;;;;;;;;5018095;28;20037;-78
2022/07/06 13:53:26;;;;;;;4.10;0.90;;;;;;;;;;5018568;28;20022;-78
2022/07/06 13:55:52;;;;;;;2.83;1.08;;;;;;;;;;5018818;28;20267;-78
2022/07/06 13:58:18;;;;;;;1.73;0.90;;;;;;;;;;5018108;28;20030;-79
2022/07/06 14:00:43;;;;;;;2.95;1.10;;;;;;;;;;5018597;28;20089;-79
2022/07/06 14:03:08;;;;;;;4.25;1.10;;;;;;;;;;5018879;28;20036;-77
2022/07/06 14:05:35;;;;;;;1.67;0.77;;;;;;;;;;5018555;28;20024;-79
2022/07/06 14:08:00;;;;;;;6.13;1.00;;;;;;;;;;5017894;28;20026;-77
2022/07/06 14:10:25;;;;;;;5.97;1.00;;;;;;;;;;5017355;28;20376;-78
2022/07/06 14:12:50;;;;;;;1.87;0.90;;;;;;;;;;5017821;28;20053;-77
2022/07/06 14:15:16;;;;;;;2.67;0.95;;;;;;;;;;5017465;28;20263;-77
2022/07/06 14:17:41;;;;;;;1.48;0.70;;;;;;;;;;5017463;28;20052;-78
2022/07/06 14:20:07;;;;;;;7.30;1.40;;;;;;;;;;5017607;28;20022;-78
2022/07/06 14:22:32;;;;;;;2.20;1.17;;;;;;;;;;5016725;28;20262;-77
2022/07/06 14:24:58;;;;;;;4.00;0.90;;;;;;;;;;5017976;28;20030;-76
2022/07/06 14:27:23;;;;;;;2.35;0.90;;;;;;;;;;5017320;28;20325;-78
2022/07/06 14:29:49;;;;;;;7.33;1.10;;;;;;;;;;5017378;28;20026;-77
2022/07/06 14:32:14;;;;;;;2.67;1.00;;;;;;;;;;5017010;28;20025;-77
2022/07/06 14:34:39;;;;;;;3.30;0.90;;;;;;;;;;5017530;28;20263;-78
2022/07/06 14:37:05;;;;;;;4.82;1.30;;;;;;;;;;5018550;28;20024;-78
2022/07/06 14:39:30;;;;;;;2.20;1.23;;;;;;;;;;5018245;28;20021;-79
2022/07/06 14:41:55;;;;;;;2.28;1.10;;;;;;;;;;5016775;28;20057;-79
2022/07/06 14:44:20;;;;;;;3.13;1.00;;;;;;;;;;4999179;28;20021;-77
2022/07/06 14:46:46;;;;;;;5.53;0.97;;;;;;;;;;5016790;28;20030;-78
2022/07/06 14:49:11;;;;;;;2.33;0.90;;;;;;;;;;5016499;28;20707;-79
2022/07/06 14:51:36;;;;;;;4.63;0.80;;;;;;;;;;5016791;28;20637;-77
2022/07/06 14:54:02;;;;;;;2.30;0.80;;;;;;;;;;5016483;28;20026;-80
2022/07/06 14:56:27;;;;;;;6.65;0.90;;;;;;;;;;5016895;28;20263;-78
2022/07/06 14:58:52;;;;;;;1.27;0.80;;;;;;;;;;5016234;28;20033;-78
2022/07/06 15:01:17;;;;;;;2.40;0.83;;;;;;;;;;5017394;28;20688;-78
2022/07/06 15:03:43;;;;;;;1.43;0.90;;;;;;;;;;5016774;28;20669;-77
2022/07/06 15:06:08;;;;;;;5.47;1.10;;;;;;;;;;5016477;28;20600;-79
2022/07/06 15:08:33;;;;;;;2.05;0.80;;;;;;;;;;5016850;28;20483;-79
2022/07/06 15:10:59;;;;;;;1.15;0.88;;;;;;;;;;5016960;28;20109;-79
2022/07/06 15:13:24;;;;;;;1.85;1.00;;;;;;;;;;5016665;28;20018;-79
2022/07/06 15:15:49;;;;;;;3.55;0.90;;;;;;;;;;5015951;28;20076;-77
2022/07/06 15:18:14;;;;;;;3.40;0.98;;;;;;;;;;5017222;28;20018;-79
2022/07/06 15:20:40;;;;;;;3.50;0.80;;;;;;;;;;5017367;28;20518;-77
2022/07/06 15:23:05;;;;;;;3.38;0.90;;;;;;;;;;5015905;28;20252;-78
2022/07/06 15:25:30;;;;;;;2.10;0.80;;;;;;;;;;5016425;28;20025;-78
2022/07/06 15:27:56;;;;;;;3.17;0.63;;;;;;;;;;5016955;28;20286;-80
2022/07/06 15:30:22;;;;;;;4.60;0.93;;;;;;;;;;5017631;28;20034;-77
2022/07/06 15:32:47;;;;;;;1.73;0.85;;;;;;;;;;5017445;28;20539;-78
2022/07/06 15:35:13;;;;;;;3.83;1.00;;;;;;;;;;5016860;28;20104;-78
2022/07/06 15:37:38;;;;;;;3.10;0.90;;;;;;;;;;5016667;28;20057;-80
2022/07/06 15:40:06;;;;;;;6.63;0.70;;;;;;;;;;5017332;28;20279;-79
2022/07/06 15:42:31;;;;;;;2.05;0.95;;;;;;;;;;5017287;28;20032;-79
2022/07/06 15:44:56;;;;;;;3.50;0.70;;;;;;;;;;5017662;28;20113;-79
2022/07/06 15:47:23;;;;;;;4.10;0.80;;;;;;;;;;5019436;28;20056;-78
2022/07/06 15:49:49;;;;;;;3.22;0.88;;;;;;;;;;5002450;28;20512;-79
2022/07/06 15:52:15;;;;;;;0.70;0.57;;;;;;;;;;5002608;28;20072;-76
2022/07/06 15:54:40;;;;;;;3.17;0.80;;;;;;;;;;5020139;28;20037;-79
2022/07/06 15:57:06;;;;;;;2.08;0.80;;;;;;;;;;5020227;28;20030;-77
2022/07/06 15:59:31;;;;;;;2.88;0.90;;;;;;;;;;5020611;28;20037;-78
2022/07/06 16:01:56;;;;;;;7.27;0.90;;;;;;;;;;5020704;28;20036;-79